Estación Meteorológica Peña el Pijo (Robertgarden) [ 05/21/19 05:19:18 CEST ]

Fecha Hora Presion(HPa) Temp (°C) Humedad % Rocio (°C) Viento ( m/s) Direccion Lluvia 1Hora(mm) Lluvia 24H(mm) LLuvia Total(mm)
2018-Dec-18 01:01:54 1015.900 -1.1 79 -4.3         160.58
2018-Dec-18 02:07:03 1015.500 -1.4 80 -4.4         160.58
2018-Dec-18 03:01:34 1015.000 -1.6 81 -4.4         160.58
2018-Dec-18 04:01:43 1014.500 -2.2 81 -5.0         160.58
2018-Dec-18 05:01:40 1014.000 -2.1 82 -4.8         160.58
2018-Dec-18 06:01:39 1013.300 -3.0 82 -5.7         160.58
2018-Dec-18 07:01:41 1013.300 -3.7 82 -6.3         160.58
2018-Dec-18 08:01:51 1013.500 -3.7 83 -6.2         160.58
2018-Dec-18 09:01:33 1014.000 -3.6 83 -6.1         160.58
2018-Dec-18 10:01:31 1013.600 1.3 85 -1.0         160.58
2018-Dec-18 11:01:32 1013.300 7.8 64 1.6         160.58
2018-Dec-18 12:01:46 1012.600 13.1 43 0.7         160.58
2018-Dec-18 13:01:31 1011.800 13.2 41 0.1         160.58
2018-Dec-18 14:01:33 1010.900 14.9 37 0.2         160.58
2018-Dec-18 15:01:19 1010.000 15.9 36 0.6         160.58
2018-Dec-18 16:01:35 1010.400 17.0 23 -4.5         160.58
2018-Dec-18 17:01:40 1010.700 14.9 31 -2.1         160.58
2018-Dec-18 18:01:50 1011.300 12.6 41 -0.3         160.58
2018-Dec-18 19:01:50 1011.700 10.6 48 0.0         160.58
2018-Dec-18 20:01:43 1012.300 9.9 52 0.5         160.58
2018-Dec-18 21:01:50 1012.200 8.5 59 0.9 1.1 NNW     160.58
2018-Dec-18 22:02:09 1012.100 7.9 62 1.0         160.58
2018-Dec-18 23:01:57 1011.900 7.8 65 1.6 0.7 WNW     160.58

Temperatura Máxima:17°    Temperatura Mínima:-3°
Presión Máxima:1015.900 Hpa    Presión Mínima:1010.000 Hpa


Volver